• Join FlightAware (Why Join?)
  • Login
  • US Flag 
09:40AM EDT


 

Airport Tracker/Info


-or-


 

Live Flight TrackerFlight Track Log ✈ SQH87 ✈ 19-Apr-2013 ✈ KHOT - KMEM

Flight Track Log - Related Links

Times and Time Zones

All times are in EDT time to prevent confusion due to time zone crossing. See the SQH87 flight status page for this flight to view local times or setup timezone preferences in your user account.

Time Position Orientation Groundspeed Altitude Reporting Facility
EDT Latitude Longitude Course Direction KTS MPH feet Rate Location/Type
04:41PM 34.5025 -92.9556 79° East 142 163 3,300  Level Memphis Center
04:42PM 34.5075 -92.9253 79° East 141 162 3,900 780 Climbing Memphis Center
04:42PM 34.5139 -92.9078 66° East 143 165 4,100 780 Climbing Memphis Center
04:43PM 34.5189 -92.8753 79° East 145 167 4,800 780 Climbing Memphis Center
04:44PM 34.5303 -92.8228 75° East 144 166 5,700 660 Climbing Memphis Center
04:45PM 34.5419 -92.7675 76° East 143 165 6,300 660 Climbing Memphis Center
04:46PM 34.5511 -92.7147 78° East 143 165 7,100 660 Climbing Memphis Center
04:47PM 34.5522 -92.6669 88° East 154 177 7,700 600 Climbing Memphis Center
04:48PM 34.5614 -92.6219 76° East 154 177 8,300 660 Climbing Memphis Center
04:49PM 34.5747 -92.5667 74° East 158 182 9,100 540 Climbing Memphis Center
04:50PM 34.5925 -92.5092 69° East 148 170 9,500 240 Climbing Memphis Center
04:51PM 34.6039 -92.4489 77° East 162 186 9,600  Climbing Memphis Center
04:52PM 34.6156 -92.3811 78° East 185 213 9,600  Level Memphis Center
04:53PM 34.6228 -92.3231 81° East 200 230 9,600 -60 Level Memphis Center
04:54PM 34.6383 -92.2528 75° East 190 219 9,500  Descending Memphis Center
04:55PM 34.6475 -92.1950 79° East 189 217 9,600  Climbing Memphis Center
04:56PM 34.6611 -92.1322 75° East 195 224 9,600  Level Memphis Center
04:57PM 34.6722 -92.0642 79° East 198 228 9,600  Level Memphis Center
04:58PM 34.6858 -92.0014 75° East 197 227 9,600  Level Memphis Center
04:59PM 34.7011 -91.9383 74° East 191 220 9,600 -60 Level Memphis Center
05:00PM 34.7125 -91.8628 80° East 197 227 9,500  Descending Memphis Center
05:01PM 34.7278 -91.8000 73° East 191 220 9,600  Climbing Memphis Center
05:02PM 34.7369 -91.7344 80° East 191 220 9,600  Level Memphis Center
05:03PM 34.7481 -91.6689 78° East 191 220 9,600  Level Memphis Center
05:04PM 34.7572 -91.6008 81° East 201 231 9,600  Level Memphis Center
05:05PM 34.7703 -91.5353 76° East 201 231 9,600  Level Memphis Center
05:06PM 34.7814 -91.4697 78° East 201 231 9,600  Level Memphis Center
05:07PM 34.7964 -91.3989 76° East 201 231 9,600  Level Memphis Center
05:08PM 34.8094 -91.3308 77° East 201 231 9,600  Level Memphis Center
05:09PM 34.8183 -91.2603 81° East 201 231 9,600  Level Memphis Center
05:10PM 34.8336 -91.1944 74° East 201 231 9,600  Level Memphis Center
05:11PM 34.8444 -91.1289 79° East 201 231 9,600 -60 Level Memphis Center
05:12PM 34.8594 -91.0606 75° East 201 231 9,500 -60 Descending Memphis Center
05:13PM 34.8703 -90.9925 79° East 201 231 9,500  Level Memphis Center
05:14PM 34.8808 -90.9242 79° East 201 231 9,500  Level Memphis Center
05:15PM 34.8936 -90.8583 77° East 201 231 9,500  Level Memphis Center
05:16PM 34.9022 -90.7978 80° East 201 231 9,500 -180 Level Memphis Center
05:17PM 34.9150 -90.7269 78° East 201 231 9,200 -480 Descending Memphis Center
05:18PM 34.9278 -90.6586 77° East 201 231 8,600 -780 Descending Memphis Center
05:19PM 34.9508 -90.5953 66° East 201 231 7,700 -900 Descending Memphis Center
05:20PM 34.9697 -90.5319 70° East 206 237 6,900 -900 Descending Memphis Center
05:21PM 34.9928 -90.4736 64° Northeast 195 224 6,000 -960 Descending Memphis Center
05:22PM 35.0178 -90.4103 64° Northeast 190 219 5,000 -1,020 Descending Memphis Center
05:23PM 35.0428 -90.3544 61° Northeast 184 212 4,000 -840 Descending Memphis Center
05:24PM 35.0658 -90.3039 61° Northeast 179 206 3,400 -720 Descending Memphis Center
05:25PM 35.0886 -90.2481 63° Northeast 179 206 2,600 -480 Descending Memphis Center
05:26PM 35.1136 -90.1972 59° Northeast 179 206 2,500 -60 Descending Memphis Center
05:27PM 35.1219 -90.1414 80° East 169 194 2,500 -180 Level Memphis Center
05:28PM 35.1217 -90.0856 90° East 164 189 2,200 -240 Descending Memphis Center
05:29PM 35.1167 -90.0333 97° East 174 200 2,100 -480 Descending KMEM
05:30PM 35.0833 -89.9833 129° Southeast 158 182 1,400 -660 Descending KMEM
05:32PM 35.0424 -89.9767 North  Level Estimated
05:39PM 35.0424 -89.9767 North  Level Estimated
05:40PM 35.0424 -89.9767 North  Level Estimated